Airfield :
LOGIN :

Register | Disclaimer

   EN    FR    IT 

 










Legend :    VFR   Marginal VFR   IFR   Intensive IFR   Very Intensive IFR
Visi :
Ceiling :
>= 8 km
>= 3000ft
5 to 8 km
1000 to 3000 ft
1500m to 5 km
500 to 1000 ft
800 to 1500m
200 to 500 ft
< 800m
< 200 ft
Symbols :   Thunderstorms  Fog  Heavy snow  Heavy precipitations  Wind > 20 kt
SIGMETs :     Misc.  Thunderstorms  Icing  Turbulence  Mountain Waves  Volcanic Ashes






- Airport Elevation : 140 ft
- IATA code : NYO


ESKN - Skavsta

CURRENT METAR :
  • 051720Z 25018G29KT 9999 SCT049 21/12 Q0991

EXPIRED METARs :
  • 051650Z 24020G32KT 9999 SCT045TCU 21/13 Q0991
  • 051620Z 25021G35KT 9999 FEW039CB SCT055 21/13 Q0991
  • 051550Z 25021KT 9999 -SHRA SCT033CB 21/15 Q0991
  • 051520Z 24017G27KT 9999 VCSH SCT035CB 22/16 Q0991
  • 051450Z 23018G30KT 9999 FEW025 SCT034TCU 21/17 Q0991

TAF TAF ESKN
Valid from the 05 at 18:00 until the 06 at 18:00 UTC


051730Z 0518/0618 24020G30KT 9999 SCT008 BKN015
TEMPO 0518/0520 BKN020CB
TEMPO 0606/0618 SHRA BKN020CB



MET'MAP, your aeronautical weather chart ! - Copyright ORBIFLY December 2007 - Disclaimer

ORBIFLY MET'MAP TEAM :

Programming & Development : Alexandra Zaïnal
Concept & original design : Baudouin d'Aumeries
Assistance for programming : Marc-Olivier Méhu
Technical & hardware support : Manuel Goepfert

Contact : metmap@orbifly.com




SOURCES & CREDITS :

   NOAA